Time;durP1;ratioP1;P1;durP2;ratioP2;P2;SDS_P1;SDS_P2;PMS_P1;PMS_P2;Temp;Humidity;BMP_temperature;BMP_pressure;BME280_temperature;BME280_humidity;BME280_pressure;Samples;Min_cycle;Max_cycle;Signal;HPM_P1;HPM_P2
2023/09/30 00:00:57;;;;;;;22.17;4.93;;;14.30;99.90;;;;;;5051024;28;20025;-69
2023/09/30 00:03:22;;;;;;;13.75;4.30;;;14.30;99.90;;;;;;5051652;28;20078;-69
2023/09/30 00:05:48;;;;;;;10.07;4.07;;;14.30;99.90;;;;;;5051033;28;20029;-69
2023/09/30 00:08:14;;;;;;;12.35;4.05;;;14.30;99.90;;;;;;5051572;28;20059;-69
2023/09/30 00:10:39;;;;;;;13.80;4.43;;;14.30;99.90;;;;;;5050936;28;20036;-69
2023/09/30 00:13:06;;;;;;;10.05;3.88;;;14.40;99.90;;;;;;5051536;28;20025;-69
2023/09/30 00:15:33;;;;;;;12.57;4.38;;;14.40;99.90;;;;;;5050848;28;20032;-69
2023/09/30 00:17:58;;;;;;;11.95;3.80;;;14.30;99.90;;;;;;5051488;28;20026;-69
2023/09/30 00:20:24;;;;;;;11.13;4.70;;;14.30;99.90;;;;;;5050994;28;20021;-69
2023/09/30 00:22:50;;;;;;;14.00;4.53;;;14.30;99.90;;;;;;5051374;28;20022;-69
2023/09/30 00:25:16;;;;;;;13.80;4.53;;;14.30;99.90;;;;;;5050992;28;20032;-69
2023/09/30 00:27:41;;;;;;;13.18;4.03;;;14.30;99.90;;;;;;5054359;28;20045;-69
2023/09/30 00:30:07;;;;;;;11.05;4.55;;;14.30;99.90;;;;;;5054903;28;20033;-69
2023/09/30 00:32:33;;;;;;;11.10;4.70;;;14.30;99.90;;;;;;5055088;28;20024;-69
2023/09/30 00:35:01;;;;;;;12.70;4.60;;;14.30;99.90;;;;;;5054983;28;20025;-69
2023/09/30 00:37:27;;;;;;;12.45;4.10;;;14.30;99.90;;;;;;5053380;28;20024;-69
2023/09/30 00:39:53;;;;;;;13.63;5.07;;;14.30;99.90;;;;;;5055182;28;20028;-69
2023/09/30 00:42:20;;;;;;;13.00;4.68;;;14.30;99.90;;;;;;5054648;28;20075;-69
2023/09/30 00:44:46;;;;;;;17.02;5.22;;;14.20;99.90;;;;;;5055231;28;20033;-69
2023/09/30 00:47:14;;;;;;;14.82;4.97;;;14.20;99.90;;;;;;5054430;28;20494;-69
2023/09/30 00:49:43;;;;;;;17.38;6.18;;;14.20;99.90;;;;;;5054781;28;20527;-69
2023/09/30 00:52:09;;;;;;;16.15;5.70;;;14.20;99.90;;;;;;5054312;28;20025;-69
2023/09/30 00:54:37;;;;;;;12.60;4.90;;;14.20;99.90;;;;;;5054978;28;20033;-69
2023/09/30 00:57:03;;;;;;;11.77;5.32;;;14.20;99.90;;;;;;5052904;28;20021;-69
2023/09/30 00:59:32;;;;;;;16.63;5.18;;;14.20;99.90;;;;;;5053499;28;20024;-69
2023/09/30 01:02:00;;;;;;;13.90;4.85;;;14.20;99.90;;;;;;5052894;28;20013;-69
2023/09/30 01:04:27;;;;;;;13.82;5.55;;;14.20;99.90;;;;;;5054762;28;20112;-69
2023/09/30 01:06:53;;;;;;;13.48;5.10;;;14.20;99.90;;;;;;5054006;28;20100;-69
2023/09/30 01:09:20;;;;;;;18.27;6.13;;;14.20;99.90;;;;;;5054632;28;20155;-69
2023/09/30 01:11:45;;;;;;;13.07;5.35;;;14.20;99.90;;;;;;5054090;28;20041;-68
2023/09/30 01:14:28;;;;;;;15.50;5.40;;;14.20;99.90;;;;;;5054323;28;20036;-69
2023/09/30 01:16:54;;;;;;;16.10;6.13;;;14.20;99.90;;;;;;5053765;28;20558;-69
2023/09/30 01:19:19;;;;;;;14.50;4.97;;;14.20;99.90;;;;;;5054330;28;20108;-69
2023/09/30 01:21:48;;;;;;;13.63;5.20;;;14.20;99.90;;;;;;5053656;28;20053;-69
2023/09/30 01:24:17;;;;;;;19.00;5.10;;;14.20;99.90;;;;;;5054323;28;20112;-69
2023/09/30 01:26:43;;;;;;;13.55;5.63;;;14.20;99.90;;;;;;5052322;28;20027;-69
2023/09/30 01:29:12;;;;;;;11.90;5.72;;;14.20;99.90;;;;;;5052953;28;20124;-69
2023/09/30 01:31:38;;;;;;;11.32;5.03;;;14.20;99.90;;;;;;5053644;28;20394;-69
2023/09/30 01:34:04;;;;;;;12.60;4.95;;;14.10;99.90;;;;;;5053986;28;20094;-69
2023/09/30 01:36:30;;;;;;;12.85;5.00;;;14.10;99.90;;;;;;5053462;28;20024;-69
2023/09/30 01:38:56;;;;;;;11.98;5.22;;;14.10;99.90;;;;;;5054158;28;20021;-69
2023/09/30 01:41:22;;;;;;;12.93;5.70;;;14.10;99.90;;;;;;5053414;28;20021;-69
2023/09/30 01:43:48;;;;;;;11.20;4.78;;;14.00;99.90;;;;;;5053860;28;20108;-69
2023/09/30 01:46:14;;;;;;;11.43;4.88;;;14.00;99.90;;;;;;5053242;28;20039;-69
2023/09/30 01:48:39;;;;;;;12.60;5.40;;;14.00;99.90;;;;;;5053412;28;20017;-69
2023/09/30 01:51:06;;;;;;;15.25;5.03;;;13.90;99.90;;;;;;5053437;28;20064;-69
2023/09/30 01:53:32;;;;;;;10.40;4.72;;;13.90;99.90;;;;;;5053660;28;20025;-69
2023/09/30 01:55:58;;;;;;;12.73;4.78;;;13.90;99.90;;;;;;5052984;28;20108;-69
2023/09/30 01:58:25;;;;;;;11.48;4.90;;;13.90;99.90;;;;;;5053861;28;20023;-69
2023/09/30 02:00:54;;;;;;;10.80;4.93;;;13.90;99.90;;;;;;5053018;28;20041;-69
2023/09/30 02:03:19;;;;;;;17.20;5.97;;;13.90;99.90;;;;;;5053481;28;20503;-69
2023/09/30 02:05:45;;;;;;;15.10;6.50;;;13.90;99.90;;;;;;5053055;28;20036;-69
2023/09/30 02:08:13;;;;;;;14.85;5.95;;;13.90;99.90;;;;;;5053669;28;20025;-69
2023/09/30 02:10:39;;;;;;;12.23;5.95;;;13.90;99.90;;;;;;5052980;28;20017;-69
2023/09/30 02:13:06;;;;;;;12.60;5.40;;;13.90;99.90;;;;;;5053199;28;20066;-69
2023/09/30 02:15:31;;;;;;;15.90;6.30;;;13.90;99.90;;;;;;5052964;28;20491;-69
2023/09/30 02:17:57;;;;;;;10.85;6.10;;;13.80;99.90;;;;;;5053252;28;20017;-69
2023/09/30 02:20:25;;;;;;;12.38;5.80;;;13.80;99.90;;;;;;5053148;28;20068;-69
2023/09/30 02:22:52;;;;;;;13.98;6.20;;;13.80;99.90;;;;;;5053081;28;20045;-69
2023/09/30 02:25:18;;;;;;;12.32;5.97;;;13.80;99.90;;;;;;5052962;28;20028;-69
2023/09/30 02:27:44;;;;;;;14.13;6.95;;;13.80;99.90;;;;;;5051488;28;20032;-70
2023/09/30 02:30:11;;;;;;;13.55;6.10;;;13.80;99.90;;;;;;5053051;28;20491;-69
2023/09/30 02:32:40;;;;;;;14.10;5.65;;;13.80;99.90;;;;;;5052334;28;20096;-69
2023/09/30 02:35:07;;;;;;;11.50;5.97;;;13.80;99.90;;;;;;5052870;28;20021;-69
2023/09/30 02:37:36;;;;;;;10.80;5.22;;;13.80;99.90;;;;;;5052357;28;20074;-69
2023/09/30 02:40:09;;;;;;;12.30;6.35;;;13.80;99.90;;;;;;5052955;28;20014;-69
2023/09/30 02:42:36;;;;;;;12.30;5.28;;;13.70;99.90;;;;;;5052274;28;20061;-69
2023/09/30 02:45:02;;;;;;;13.23;6.22;;;13.70;99.90;;;;;;5052634;28;20033;-69
2023/09/30 02:47:28;;;;;;;13.32;6.47;;;13.80;99.90;;;;;;5052120;28;20509;-69
2023/09/30 02:49:56;;;;;;;42.08;7.28;;;13.80;99.90;;;;;;5051766;28;20078;-69
2023/09/30 02:52:22;;;;;;;17.13;6.80;;;13.80;99.90;;;;;;5052036;28;20039;-69
2023/09/30 02:54:49;;;;;;;12.48;6.90;;;13.80;99.90;;;;;;5052499;28;20025;-69
2023/09/30 02:57:15;;;;;;;17.20;7.28;;;13.80;99.90;;;;;;5051908;28;20032;-68
2023/09/30 02:59:42;;;;;;;15.00;7.22;;;13.80;99.90;;;;;;5052449;28;20021;-69
2023/09/30 03:02:07;;;;;;;15.02;7.43;;;13.80;99.90;;;;;;5051824;28;20108;-69
2023/09/30 03:04:33;;;;;;;14.57;7.47;;;13.80;99.90;;;;;;5051193;28;20120;-69
2023/09/30 03:06:59;;;;;;;18.20;7.55;;;13.90;99.90;;;;;;5051796;28;20028;-69
2023/09/30 03:09:26;;;;;;;14.57;7.32;;;13.90;99.90;;;;;;5052407;28;20108;-69
2023/09/30 03:11:51;;;;;;;17.95;8.20;;;13.90;99.90;;;;;;5051670;28;20036;-69
2023/09/30 03:14:18;;;;;;;15.90;7.40;;;13.90;99.90;;;;;;5052144;28;20028;-69
2023/09/30 03:16:44;;;;;;;14.55;7.35;;;13.90;99.90;;;;;;5050185;28;20439;-69
2023/09/30 03:19:11;;;;;;;15.57;8.00;;;13.90;99.90;;;;;;5052352;28;20438;-69
2023/09/30 03:21:37;;;;;;;18.08;8.13;;;13.90;99.90;;;;;;5051654;28;20024;-69
2023/09/30 03:24:04;;;;;;;16.15;8.07;;;13.90;99.90;;;;;;5052260;28;20025;-69
2023/09/30 03:26:30;;;;;;;16.15;7.68;;;13.90;99.90;;;;;;5051382;28;20017;-69
2023/09/30 03:28:57;;;;;;;16.58;7.13;;;13.90;99.90;;;;;;5051977;28;20450;-69
2023/09/30 03:31:22;;;;;;;13.48;7.55;;;13.90;99.90;;;;;;5051426;28;20033;-69
2023/09/30 03:33:54;;;;;;;14.20;7.97;;;13.90;99.90;;;;;;5052146;28;20390;-69
2023/09/30 03:36:22;;;;;;;15.90;7.97;;;13.90;99.90;;;;;;5051278;28;20479;-69
2023/09/30 03:38:47;;;;;;;14.50;7.93;;;13.90;99.90;;;;;;5051890;28;20096;-68
2023/09/30 03:41:13;;;;;;;19.08;8.27;;;13.90;99.90;;;;;;5051235;28;20116;-69
2023/09/30 03:43:41;;;;;;;14.90;7.22;;;13.90;99.90;;;;;;5050579;28;20021;-68
2023/09/30 03:46:09;;;;;;;14.18;8.30;;;13.90;99.90;;;;;;5051294;28;20475;-69
2023/09/30 03:48:39;;;;;;;15.13;8.35;;;13.90;99.90;;;;;;5051554;28;20025;-69
2023/09/30 03:51:14;;;;;;;16.27;8.60;;;13.90;99.90;;;;;;5051268;28;20032;-68
2023/09/30 03:53:47;;;;;;;13.85;7.65;;;14.00;99.90;;;;;;5051641;28;20025;-69
2023/09/30 03:56:13;;;;;;;18.00;9.52;;;13.90;99.90;;;;;;5051109;28;20056;-69
2023/09/30 03:58:42;;;;;;;22.73;9.27;;;13.90;99.90;;;;;;5051783;28;20021;-69
2023/09/30 04:01:13;;;;;;;14.45;8.30;;;14.00;99.90;;;;;;5051810;28;20021;-69
2023/09/30 04:03:39;;;;;;;14.13;8.05;;;14.00;99.90;;;;;;5055809;28;20049;-69
2023/09/30 04:06:06;;;;;;;16.10;8.18;;;14.00;99.90;;;;;;5055382;28;20102;-69
2023/09/30 04:08:33;;;;;;;15.18;8.55;;;13.90;99.90;;;;;;5055458;28;20067;-69
2023/09/30 04:11:05;;;;;;;15.65;8.60;;;13.90;99.90;;;;;;5055199;28;20104;-69
2023/09/30 04:13:31;;;;;;;16.35;8.57;;;13.90;99.90;;;;;;5054323;28;20029;-69
2023/09/30 04:15:59;;;;;;;17.13;8.88;;;13.90;99.90;;;;;;5055259;28;20605;-69
2023/09/30 04:18:26;;;;;;;13.32;8.60;;;13.90;99.90;;;;;;5055423;28;20159;-69
2023/09/30 04:20:55;;;;;;;16.05;8.73;;;14.00;99.90;;;;;;5055092;28;20092;-68
2023/09/30 04:23:21;;;;;;;18.33;9.27;;;14.00;99.90;;;;;;5053880;28;20021;-69
2023/09/30 04:25:47;;;;;;;14.90;7.93;;;13.90;99.90;;;;;;5055157;28;20383;-69
2023/09/30 04:28:15;;;;;;;13.98;8.43;;;14.00;99.90;;;;;;5053873;28;20017;-69
2023/09/30 04:30:41;;;;;;;15.45;9.52;;;14.00;99.90;;;;;;5055413;28;20028;-69
2023/09/30 04:33:10;;;;;;;14.18;8.23;;;14.00;99.90;;;;;;5054777;28;20379;-69
2023/09/30 04:35:37;;;;;;;17.75;9.65;;;14.00;99.90;;;;;;5055415;28;20021;-69
2023/09/30 04:38:04;;;;;;;15.18;9.52;;;14.00;99.90;;;;;;5054563;28;20020;-69
2023/09/30 04:40:30;;;;;;;14.82;9.02;;;14.00;99.90;;;;;;5055332;28;20025;-69
2023/09/30 04:42:58;;;;;;;15.13;9.05;;;14.00;99.90;;;;;;5054444;28;20032;-69
2023/09/30 04:45:27;;;;;;;16.35;9.18;;;14.00;99.90;;;;;;5055285;28;20033;-69
2023/09/30 04:47:58;;;;;;;17.48;9.75;;;14.00;99.90;;;;;;5054361;28;20025;-69
2023/09/30 04:50:24;;;;;;;16.17;10.00;;;14.00;99.90;;;;;;5055361;28;20499;-69
2023/09/30 04:52:53;;;;;;;20.92;10.52;;;13.90;99.90;;;;;;5052952;28;20032;-69
2023/09/30 04:55:19;;;;;;;16.70;10.02;;;13.90;99.90;;;;;;5054874;28;20037;-69
2023/09/30 04:57:49;;;;;;;13.40;9.93;;;13.90;99.90;;;;;;5054239;28;20017;-69
2023/09/30 05:00:17;;;;;;;16.60;9.98;;;13.90;99.90;;;;;;5054826;28;20100;-69
2023/09/30 05:02:44;;;;;;;16.83;10.32;;;13.90;99.90;;;;;;5054119;28;20027;-69
2023/09/30 05:05:10;;;;;;;15.63;9.73;;;13.90;99.90;;;;;;5054682;28;20052;-69
2023/09/30 05:07:36;;;;;;;17.55;9.85;;;13.90;99.90;;;;;;5054269;28;20499;-69
2023/09/30 05:10:05;;;;;;;17.58;10.55;;;14.00;99.90;;;;;;5054767;28;20092;-69
2023/09/30 05:12:32;;;;;;;17.40;9.98;;;14.00;99.90;;;;;;5053398;28;20025;-69
2023/09/30 05:14:59;;;;;;;14.52;10.35;;;14.00;99.90;;;;;;5053139;28;20029;-69
2023/09/30 05:17:24;;;;;;;20.17;11.60;;;14.00;99.90;;;;;;5053924;28;20031;-69
2023/09/30 05:19:50;;;;;;;16.92;10.98;;;14.00;99.90;;;;;;5054474;28;20025;-69
2023/09/30 05:22:18;;;;;;;16.52;9.80;;;13.90;99.90;;;;;;5053688;28;20433;-69
2023/09/30 05:24:44;;;;;;;18.17;10.77;;;14.00;99.90;;;;;;5054182;28;20036;-69
2023/09/30 05:27:10;;;;;;;17.40;10.45;;;14.00;99.90;;;;;;5053670;28;20025;-69
2023/09/30 05:29:35;;;;;;;15.02;10.00;;;14.00;99.90;;;;;;5054222;28;20033;-69
2023/09/30 05:32:01;;;;;;;20.77;11.32;;;14.00;99.90;;;;;;5053671;28;20590;-69
2023/09/30 05:34:27;;;;;;;16.75;10.15;;;14.00;99.90;;;;;;5053974;28;20029;-69
2023/09/30 05:36:53;;;;;;;15.45;10.60;;;14.00;99.90;;;;;;5053489;28;20021;-69
2023/09/30 05:39:19;;;;;;;19.00;11.20;;;13.90;99.90;;;;;;5053951;28;20478;-69
2023/09/30 05:41:46;;;;;;;16.73;10.68;;;13.90;99.90;;;;;;5053409;28;20025;-69
2023/09/30 05:44:14;;;;;;;17.08;10.40;;;13.90;99.90;;;;;;5053871;28;20021;-69
2023/09/30 05:46:40;;;;;;;18.90;10.73;;;13.90;99.90;;;;;;5053211;28;20021;-69
2023/09/30 05:49:11;;;;;;;18.92;10.35;;;13.80;99.90;;;;;;5053605;28;20052;-69
2023/09/30 05:51:36;;;;;;;;;;;13.80;99.90;;;;;;5053595;28;20021;-69
2023/09/30 05:54:03;;;;;;;16.48;9.98;;;13.80;99.90;;;;;;5053817;28;19923;-69
2023/09/30 05:56:29;;;;;;;16.88;9.82;;;13.80;99.90;;;;;;5053325;28;20026;-69
2023/09/30 05:58:55;;;;;;;17.48;10.20;;;13.80;99.90;;;;;;5052197;28;20029;-69
2023/09/30 06:01:22;;;;;;;20.50;10.27;;;13.80;99.90;;;;;;5053150;28;20048;-69
2023/09/30 06:03:47;;;;;;;18.70;10.90;;;13.80;99.90;;;;;;5053357;28;20123;-69
2023/09/30 06:06:15;;;;;;;15.43;9.90;;;13.80;99.90;;;;;;5053110;28;20159;-69
2023/09/30 06:08:43;;;;;;;15.77;9.63;;;13.80;99.90;;;;;;5053182;28;20031;-69
2023/09/30 06:11:19;;;;;;;17.95;11.30;;;13.80;99.90;;;;;;5053180;28;20495;-69
2023/09/30 06:13:46;;;;;;;15.38;10.82;;;13.80;99.90;;;;;;5053158;28;20027;-69
2023/09/30 06:16:12;;;;;;;16.20;10.15;;;13.70;99.90;;;;;;5053046;28;20017;-69
2023/09/30 06:18:38;;;;;;;20.17;10.93;;;13.70;99.90;;;;;;5052928;28;20475;-69
2023/09/30 06:21:04;;;;;;;18.30;11.30;;;13.80;99.90;;;;;;5053175;28;20024;-69
2023/09/30 06:23:30;;;;;;;17.80;11.13;;;13.70;99.90;;;;;;5050822;28;20013;-69
2023/09/30 06:25:57;;;;;;;24.63;11.55;;;13.80;99.90;;;;;;5051563;28;20067;-69
2023/09/30 06:28:25;;;;;;;18.77;10.88;;;13.80;99.90;;;;;;5051224;28;20032;-69
2023/09/30 06:30:52;;;;;;;16.55;10.30;;;13.80;99.90;;;;;;5051744;28;20066;-69
2023/09/30 06:33:17;;;;;;;17.20;10.57;;;13.80;99.90;;;;;;5051067;28;20514;-69
2023/09/30 06:35:50;;;;;;;20.25;10.48;;;13.90;99.90;;;;;;5053220;28;20111;-69
2023/09/30 06:38:19;;;;;;;17.95;10.95;;;13.90;99.90;;;;;;5052500;28;20096;-69
2023/09/30 06:40:48;;;;;;;18.58;10.40;;;13.90;99.90;;;;;;5052911;28;20039;-69
2023/09/30 06:43:17;;;;;;;18.23;10.85;;;13.90;99.90;;;;;;5050917;28;20100;-69
2023/09/30 06:45:44;;;;;;;21.85;11.35;;;14.00;99.90;;;;;;5052849;28;20096;-69
2023/09/30 06:48:13;;;;;;;18.73;11.00;;;14.00;99.90;;;;;;5052145;28;20017;-69
2023/09/30 06:50:43;;;;;;;18.55;11.18;;;14.00;99.90;;;;;;5052553;28;20124;-69
2023/09/30 06:53:09;;;;;;;18.05;11.25;;;14.00;99.90;;;;;;5050930;28;20027;-69
2023/09/30 06:55:36;;;;;;;20.42;11.18;;;14.00;99.90;;;;;;5052468;28;20104;-69
2023/09/30 06:58:03;;;;;;;22.55;11.43;;;14.00;99.90;;;;;;5051815;28;20025;-69
2023/09/30 07:00:29;;;;;;;17.02;10.63;;;14.00;99.90;;;;;;5052474;28;20040;-69
2023/09/30 07:02:55;;;;;;;17.95;10.82;;;14.10;99.90;;;;;;5050609;28;20483;-69
2023/09/30 07:05:20;;;;;;;19.63;11.05;;;14.10;99.90;;;;;;5052302;28;20020;-69
2023/09/30 07:07:46;;;;;;;19.45;11.32;;;14.10;99.90;;;;;;5051982;28;20037;-69
2023/09/30 07:10:12;;;;;;;20.67;11.40;;;14.10;99.90;;;;;;5052261;28;20123;-69
2023/09/30 07:12:37;;;;;;;20.90;11.35;;;14.10;99.90;;;;;;5051694;28;20029;-69
2023/09/30 07:15:04;;;;;;;19.55;10.68;;;14.20;99.90;;;;;;5050825;28;20032;-69
2023/09/30 07:17:30;;;;;;;24.13;11.88;;;14.20;99.90;;;;;;5051877;28;20108;-69
2023/09/30 07:19:56;;;;;;;16.25;9.15;;;14.20;99.90;;;;;;5052154;28;20055;-69
2023/09/30 07:22:22;;;;;;;18.63;10.02;;;14.30;99.90;;;;;;5051613;28;20032;-69
2023/09/30 07:24:48;;;;;;;16.92;10.52;;;14.30;99.90;;;;;;5052235;28;20021;-69
2023/09/30 07:27:14;;;;;;;20.73;11.23;;;14.30;99.90;;;;;;5051474;28;20029;-69
2023/09/30 07:29:39;;;;;;;19.25;11.05;;;14.30;99.90;;;;;;5052038;28;20510;-69
2023/09/30 07:32:07;;;;;;;19.88;11.13;;;14.40;99.90;;;;;;5051516;28;20042;-69
2023/09/30 07:34:33;;;;;;;21.45;11.68;;;14.40;99.90;;;;;;5050589;28;20028;-69
2023/09/30 07:36:58;;;;;;;22.60;11.82;;;14.40;99.90;;;;;;5051026;28;20021;-69
2023/09/30 07:39:24;;;;;;;17.02;11.02;;;14.40;99.90;;;;;;5051900;28;20079;-69
2023/09/30 07:41:50;;;;;;;20.75;11.05;;;14.40;99.90;;;;;;5050381;28;20032;-69
2023/09/30 07:44:15;;;;;;;19.75;11.88;;;14.40;99.90;;;;;;5051631;28;20025;-69
2023/09/30 07:46:41;;;;;;;20.30;11.65;;;14.50;99.90;;;;;;5051713;28;20320;-69
2023/09/30 07:49:08;;;;;;;18.98;10.60;;;14.50;99.90;;;;;;5051287;28;20507;-69
2023/09/30 07:51:35;;;;;;;22.92;12.52;;;14.60;99.90;;;;;;5051275;28;20513;-69
2023/09/30 07:54:01;;;;;;;20.92;11.50;;;14.60;99.90;;;;;;5050189;28;20028;-69
2023/09/30 07:56:27;;;;;;;21.10;12.05;;;14.60;99.90;;;;;;5051543;28;20021;-69
2023/09/30 07:58:53;;;;;;;21.05;11.40;;;14.70;99.90;;;;;;5051152;28;20048;-69
2023/09/30 08:01:19;;;;;;;21.55;11.73;;;14.80;99.90;;;;;;5051920;28;20096;-69
2023/09/30 08:03:45;;;;;;;20.38;10.57;;;14.80;99.90;;;;;;5051023;28;20024;-69
2023/09/30 08:06:11;;;;;;;19.67;11.63;;;14.90;99.90;;;;;;5051656;28;20025;-69
2023/09/30 08:08:36;;;;;;;19.38;11.98;;;15.00;99.90;;;;;;5051033;28;20028;-69
2023/09/30 08:11:02;;;;;;;18.85;10.70;;;15.00;99.90;;;;;;5051683;28;20070;-69
2023/09/30 08:13:29;;;;;;;25.50;11.95;;;15.10;99.90;;;;;;5050749;28;20479;-69
2023/09/30 08:15:55;;;;;;;23.25;11.93;;;15.20;99.90;;;;;;5051804;28;20018;-69
2023/09/30 08:18:21;;;;;;;22.17;11.90;;;15.20;99.90;;;;;;5050941;28;20483;-69
2023/09/30 08:20:47;;;;;;;20.65;11.35;;;15.30;99.90;;;;;;5050327;28;20032;-69
2023/09/30 08:23:13;;;;;;;17.85;9.88;;;15.40;99.90;;;;;;5050888;28;20102;-69
2023/09/30 08:25:39;;;;;;;21.48;11.13;;;15.40;99.90;;;;;;5051547;28;20031;-69
2023/09/30 08:28:05;;;;;;;20.58;11.93;;;15.50;99.90;;;;;;5050708;28;20109;-69
2023/09/30 08:30:32;;;;;;;22.17;11.20;;;15.50;99.90;;;;;;5051845;28;20048;-69
2023/09/30 08:32:58;;;;;;;20.38;10.55;;;15.50;99.90;;;;;;5049608;28;20024;-69
2023/09/30 08:35:24;;;;;;;20.70;10.38;;;15.60;99.90;;;;;;5051295;28;20039;-69
2023/09/30 08:37:50;;;;;;;21.92;10.75;;;15.70;99.90;;;;;;5050764;28;20100;-69
2023/09/30 08:40:21;;;;;;;18.23;10.90;;;15.70;99.90;;;;;;5050016;28;20063;-69
2023/09/30 08:42:52;;;;;;;21.35;11.38;;;15.80;99.90;;;;;;5050762;28;20180;-69
2023/09/30 08:45:18;;;;;;;19.88;11.02;;;15.90;99.90;;;;;;5051260;28;20025;-69
2023/09/30 08:47:46;;;;;;;17.58;10.13;;;15.90;99.90;;;;;;5052353;28;20029;-69
2023/09/30 08:50:13;;;;;;;19.55;10.68;;;16.00;99.90;;;;;;5054850;28;20067;-69
2023/09/30 08:52:40;;;;;;;23.58;10.88;;;16.10;99.90;;;;;;5054253;28;20475;-69
2023/09/30 08:55:08;;;;;;;18.83;10.45;;;16.20;99.90;;;;;;5054788;28;20021;-69
2023/09/30 08:57:39;;;;;;;21.05;10.65;;;16.30;99.90;;;;;;5054466;28;20017;-69
2023/09/30 09:00:06;;;;;;;18.92;10.57;;;16.40;99.90;;;;;;5054860;28;20500;-69
2023/09/30 09:02:35;;;;;;;21.35;10.60;;;16.50;99.90;;;;;;5053973;28;20529;-69
2023/09/30 09:05:02;;;;;;;19.35;11.05;;;16.60;99.90;;;;;;5054853;28;20523;-69
2023/09/30 09:07:27;;;;;;;23.55;11.10;;;16.60;99.90;;;;;;5053960;28;20045;-69
2023/09/30 09:10:22;;;;;;;17.17;9.73;;;16.70;99.90;;;;;;5054639;28;20438;-69
2023/09/30 09:12:56;;;;;;;17.33;10.30;;;16.90;99.90;;;;;;5053427;28;20037;-69
2023/09/30 09:15:25;;;;;;;16.75;9.00;;;17.00;99.90;;;;;;5054395;28;20147;-69
2023/09/30 09:17:52;;;;;;;24.80;11.00;;;17.10;99.90;;;;;;5053793;28;20104;-70
2023/09/30 09:20:24;;;;;;;20.10;9.93;;;17.20;99.90;;;;;;5054361;28;20506;-69
2023/09/30 09:22:55;;;;;;;18.50;9.15;;;17.30;99.90;;;;;;5052431;28;20657;-69
2023/09/30 09:25:25;;;;;;;18.67;10.40;;;17.40;99.90;;;;;;5054379;28;20048;-69
2023/09/30 09:27:51;;;;;;;18.00;9.63;;;17.50;99.90;;;;;;5053802;28;20103;-69
2023/09/30 09:30:27;;;;;;;16.80;8.65;;;17.60;99.90;;;;;;5054300;28;20035;-69
2023/09/30 09:33:04;;;;;;;17.55;9.15;;;17.70;99.90;;;;;;5052185;28;20021;-69
2023/09/30 09:35:34;;;;;;;17.77;9.02;;;17.80;99.90;;;;;;5052744;28;20098;-69
2023/09/30 09:38:04;;;;;;;17.08;8.38;;;17.90;99.90;;;;;;5053513;28;20017;-69
2023/09/30 09:40:40;;;;;;;20.13;9.02;;;18.00;99.90;;;;;;5054033;28;20499;-69
2023/09/30 09:43:06;;;;;;;16.85;7.80;;;18.10;99.90;;;;;;5052170;28;20021;-69
2023/09/30 09:45:34;;;;;;;18.50;9.85;;;18.20;99.90;;;;;;5053888;28;20510;-69
2023/09/30 09:48:01;;;;;;;17.73;8.93;;;18.30;99.90;;;;;;5051858;28;20380;-69
2023/09/30 09:50:26;;;;;;;15.80;8.52;;;18.30;99.90;;;;;;5053819;28;20049;-69
2023/09/30 09:52:54;;;;;;;17.60;8.02;;;18.40;99.90;;;;;;5053308;28;20024;-69
2023/09/30 09:55:22;;;;;;;16.40;7.82;;;18.50;99.90;;;;;;5053755;28;20276;-69
2023/09/30 09:57:49;;;;;;;15.60;8.10;;;18.60;99.90;;;;;;5052935;28;20507;-69
2023/09/30 10:00:23;;;;;;;13.27;7.13;;;18.70;99.90;;;;;;5052367;28;20070;-69
2023/09/30 10:02:50;;;;;;;15.70;9.15;;;18.80;99.90;;;;;;5052956;28;20483;-69
2023/09/30 10:05:17;;;;;;;16.55;7.20;;;18.80;99.90;;;;;;5053569;28;20032;-69
2023/09/30 10:08:06;;;;;;;16.48;7.78;;;18.90;99.90;;;;;;5052937;28;20037;-69
2023/09/30 10:10:37;;;;;;;14.30;7.63;;;19.00;99.90;;;;;;5053493;28;20032;-69
2023/09/30 10:13:03;;;;;;;15.68;7.63;;;19.10;99.90;;;;;;5052840;28;20029;-69
2023/09/30 10:15:30;;;;;;;20.23;7.85;;;19.30;99.90;;;;;;5053166;28;20045;-69
2023/09/30 10:18:04;;;;;;;17.95;7.25;;;19.30;99.90;;;;;;5052751;28;20033;-69
2023/09/30 10:20:34;;;;;;;13.85;6.07;;;19.50;99.90;;;;;;5053291;28;20025;-69
2023/09/30 10:23:32;;;;;;;15.57;7.38;;;19.50;99.90;;;;;;5052475;28;20066;-69
2023/09/30 10:26:13;;;;;;;12.57;5.93;;;19.60;99.90;;;;;;5051755;28;20434;-69
2023/09/30 10:28:41;;;;;;;15.68;6.00;;;19.70;99.90;;;;;;5052421;28;20100;-69
2023/09/30 10:31:20;;;;;;;11.43;5.53;;;19.80;99.90;;;;;;5051705;28;20507;-69
2023/09/30 10:34:01;;;;;;;12.05;5.63;;;19.90;99.90;;;;;;5052463;28;20021;-69
2023/09/30 10:36:41;;;;;;;14.10;6.07;;;20.00;99.90;;;;;;5052944;28;20503;-69
2023/09/30 10:39:13;;;;;;;16.30;5.18;;;20.00;99.90;;;;;;5048246;28;20021;-69
2023/09/30 10:41:39;;;;;;;14.60;5.93;;;20.10;99.90;;;;;;5052939;28;20025;-69
2023/09/30 10:44:38;;;;;;;10.68;4.68;;;20.20;99.90;;;;;;5052436;28;20086;-69
2023/09/30 10:47:35;;;;;;;14.98;5.55;;;20.20;99.90;;;;;;5040019;28;20036;-69
2023/09/30 10:50:00;;;;;;;13.27;5.15;;;20.20;99.90;;;;;;5052382;28;20515;-69
2023/09/30 10:52:26;;;;;;;11.88;3.70;;;20.30;99.90;;;;;;5050914;28;20110;-69
2023/09/30 10:54:52;;;;;;;12.95;4.60;;;20.30;99.90;;;;;;5052458;28;20033;-69
2023/09/30 10:57:28;;;;;;;11.60;4.32;;;20.40;99.90;;;;;;5052048;28;20495;-69
2023/09/30 11:00:16;;;;;;;12.80;4.93;;;20.50;99.90;;;;;;5051051;28;20060;-69
2023/09/30 11:02:49;;;;;;;11.75;4.78;;;20.60;99.90;;;;;;5050548;28;20028;-69
2023/09/30 11:05:15;;;;;;;15.18;4.72;;;20.80;99.90;;;;;;5052662;28;20100;-69
2023/09/30 11:07:42;;;;;;;9.50;4.00;;;20.90;99.90;;;;;;5051711;28;20499;-69
2023/09/30 11:10:08;;;;;;;11.80;3.80;;;21.00;99.90;;;;;;5050628;28;20032;-69
2023/09/30 11:12:34;;;;;;;7.97;3.35;;;21.00;99.90;;;;;;5051723;28;20033;-69
2023/09/30 11:15:03;;;;;;;11.30;4.07;;;21.00;99.90;;;;;;5052023;28;20029;-69
2023/09/30 11:17:29;;;;;;;8.52;3.55;;;21.00;99.90;;;;;;5050514;28;20020;-69
2023/09/30 11:19:54;;;;;;;14.20;4.65;;;21.00;99.90;;;;;;5052425;28;20017;-69
2023/09/30 11:22:21;;;;;;;10.43;4.30;;;21.00;99.90;;;;;;5051610;28;20017;-69
2023/09/30 11:24:47;;;;;;;10.10;3.60;;;20.90;99.90;;;;;;5051875;28;20418;-69
2023/09/30 11:27:12;;;;;;;8.85;2.90;;;20.90;99.90;;;;;;5051861;28;20021;-69
2023/09/30 11:29:51;;;;;;;9.40;3.30;;;20.90;99.90;;;;;;5051765;28;20029;-69
2023/09/30 11:32:28;;;;;;;12.13;3.42;;;20.80;99.90;;;;;;5051540;28;20479;-69
2023/09/30 11:34:54;;;;;;;13.38;3.85;;;20.80;99.90;;;;;;5051605;28;20028;-69
2023/09/30 11:37:21;;;;;;;9.73;2.90;;;20.70;99.90;;;;;;5051659;28;20017;-69
2023/09/30 11:39:47;;;;;;;11.10;3.28;;;20.70;99.90;;;;;;5051710;28;20017;-69
2023/09/30 11:42:17;;;;;;;7.78;2.90;;;20.70;99.90;;;;;;5051634;28;20431;-69
2023/09/30 11:44:50;;;;;;;9.17;3.20;;;20.70;99.90;;;;;;5051554;28;20092;-69
2023/09/30 11:47:16;;;;;;;9.30;3.80;;;20.60;99.90;;;;;;5051573;28;20275;-69
2023/09/30 11:49:48;;;;;;;10.70;3.30;;;20.60;99.90;;;;;;5051274;28;20057;-69
2023/09/30 11:52:15;;;;;;;10.07;3.60;;;20.60;99.90;;;;;;5051702;28;20025;-69
2023/09/30 11:54:43;;;;;;;10.35;3.33;;;20.60;99.90;;;;;;5051881;28;20060;-69
2023/09/30 11:57:11;;;;;;;8.80;2.95;;;20.60;99.90;;;;;;5051604;28;20025;-69
2023/09/30 11:59:41;;;;;;;7.75;2.45;;;20.60;99.90;;;;;;5051289;28;20053;-69
2023/09/30 12:02:08;;;;;;;11.63;2.97;;;20.60;99.90;;;;;;5051803;28;20028;-69
2023/09/30 12:04:35;;;;;;;8.43;2.85;;;20.70;99.90;;;;;;5050950;28;20032;-69
2023/09/30 12:07:01;;;;;;;12.38;3.03;;;20.80;99.90;;;;;;5051571;28;20029;-69
2023/09/30 12:09:28;;;;;;;7.88;3.53;;;20.80;99.90;;;;;;5051018;28;20074;-69
2023/09/30 12:11:54;;;;;;;9.90;3.55;;;20.90;99.90;;;;;;5051554;28;20021;-69
2023/09/30 12:14:21;;;;;;;8.20;2.72;;;21.00;99.90;;;;;;5049521;28;20040;-69
2023/09/30 12:16:47;;;;;;;13.30;3.50;;;21.00;99.90;;;;;;5051472;28;20487;-69
2023/09/30 12:19:15;;;;;;;10.45;2.90;;;21.10;99.90;;;;;;5050955;28;20032;-70
2023/09/30 12:21:41;;;;;;;7.93;2.92;;;21.20;99.90;;;;;;5051608;28;20110;-69
2023/09/30 12:24:09;;;;;;;7.97;2.55;;;21.30;99.90;;;;;;5053314;28;20024;-69
2023/09/30 12:26:36;;;;;;;7.03;2.78;;;21.40;99.90;;;;;;5055345;28;20079;-69
2023/09/30 12:29:05;;;;;;;10.70;3.00;;;21.40;99.10;;;;;;5054759;28;20040;-69
2023/09/30 12:31:31;;;;;;;11.52;3.45;;;21.40;99.10;;;;;;5055435;28;20025;-69
2023/09/30 12:33:56;;;;;;;11.82;3.42;;;21.40;99.20;;;;;;5054670;28;20360;-69
2023/09/30 12:36:24;;;;;;;6.95;2.78;;;21.30;98.90;;;;;;5055142;28;20383;-69
2023/09/30 12:38:49;;;;;;;13.10;3.60;;;21.20;99.00;;;;;;5053202;28;20025;-69